sensor_id;sensor_type;location;lat;lon;timestamp;temperature;humidity
11908;DHT22;6014;47.690;9.130;2023-04-29T00:01:11;13.60;99.90
11908;DHT22;6014;47.690;9.130;2023-04-29T00:03:45;13.60;99.90
11908;DHT22;6014;47.690;9.130;2023-04-29T00:06:23;13.60;99.90
11908;DHT22;6014;47.690;9.130;2023-04-29T00:09:00;13.60;99.90
11908;DHT22;6014;47.690;9.130;2023-04-29T00:11:50;13.60;99.90
11908;DHT22;6014;47.690;9.130;2023-04-29T00:14:29;13.70;99.90
11908;DHT22;6014;47.690;9.130;2023-04-29T00:17:12;13.70;99.90
11908;DHT22;6014;47.690;9.130;2023-04-29T00:19:56;13.60;99.90
11908;DHT22;6014;47.690;9.130;2023-04-29T00:22:30;13.50;99.90
11908;DHT22;6014;47.690;9.130;2023-04-29T00:25:16;13.50;99.90
11908;DHT22;6014;47.690;9.130;2023-04-29T00:28:02;13.60;99.90
11908;DHT22;6014;47.690;9.130;2023-04-29T00:30:46;13.60;99.90
11908;DHT22;6014;47.690;9.130;2023-04-29T00:33:51;13.60;99.90
11908;DHT22;6014;47.690;9.130;2023-04-29T00:36:31;13.50;99.90
11908;DHT22;6014;47.690;9.130;2023-04-29T00:39:26;13.50;99.90
11908;DHT22;6014;47.690;9.130;2023-04-29T00:42:03;13.50;99.90
11908;DHT22;6014;47.690;9.130;2023-04-29T00:44:35;13.50;99.90
11908;DHT22;6014;47.690;9.130;2023-04-29T00:47:17;13.60;99.90
11908;DHT22;6014;47.690;9.130;2023-04-29T00:49:53;13.70;99.90
11908;DHT22;6014;47.690;9.130;2023-04-29T00:52:32;13.70;99.90
11908;DHT22;6014;47.690;9.130;2023-04-29T00:55:12;13.70;99.90
11908;DHT22;6014;47.690;9.130;2023-04-29T00:58:17;13.80;99.90
11908;DHT22;6014;47.690;9.130;2023-04-29T01:00:55;13.70;99.90
11908;DHT22;6014;47.690;9.130;2023-04-29T01:03:51;13.70;99.90
11908;DHT22;6014;47.690;9.130;2023-04-29T01:06:48;13.60;99.90
11908;DHT22;6014;47.690;9.130;2023-04-29T01:09:52;13.60;99.90
11908;DHT22;6014;47.690;9.130;2023-04-29T01:12:40;13.60;99.90
11908;DHT22;6014;47.690;9.130;2023-04-29T01:15:20;13.60;99.90
11908;DHT22;6014;47.690;9.130;2023-04-29T01:18:17;13.50;99.90
11908;DHT22;6014;47.690;9.130;2023-04-29T01:20:59;13.40;99.90
11908;DHT22;6014;47.690;9.130;2023-04-29T01:23:32;13.50;99.90
11908;DHT22;6014;47.690;9.130;2023-04-29T01:26:06;13.40;99.90
11908;DHT22;6014;47.690;9.130;2023-04-29T01:28:45;13.50;99.90
11908;DHT22;6014;47.690;9.130;2023-04-29T01:31:29;13.50;99.90
11908;DHT22;6014;47.690;9.130;2023-04-29T01:34:09;13.60;99.90
11908;DHT22;6014;47.690;9.130;2023-04-29T01:36:50;13.50;99.90
11908;DHT22;6014;47.690;9.130;2023-04-29T01:39:36;13.50;99.90
11908;DHT22;6014;47.690;9.130;2023-04-29T01:42:21;13.30;99.90
11908;DHT22;6014;47.690;9.130;2023-04-29T01:45:07;13.30;99.90
11908;DHT22;6014;47.690;9.130;2023-04-29T01:48:22;13.30;99.90
11908;DHT22;6014;47.690;9.130;2023-04-29T01:51:11;13.30;99.90
11908;DHT22;6014;47.690;9.130;2023-04-29T01:53:48;13.30;99.90
11908;DHT22;6014;47.690;9.130;2023-04-29T01:56:27;13.30;99.90
11908;DHT22;6014;47.690;9.130;2023-04-29T01:59:00;13.30;99.90
11908;DHT22;6014;47.690;9.130;2023-04-29T02:01:37;13.30;99.90
11908;DHT22;6014;47.690;9.130;2023-04-29T02:04:13;13.20;99.90
11908;DHT22;6014;47.690;9.130;2023-04-29T02:06:48;13.10;99.90
11908;DHT22;6014;47.690;9.130;2023-04-29T02:12:29;13.10;99.90
11908;DHT22;6014;47.690;9.130;2023-04-29T02:15:14;13.20;99.90
11908;DHT22;6014;47.690;9.130;2023-04-29T02:18:00;13.20;99.90
11908;DHT22;6014;47.690;9.130;2023-04-29T02:20:49;13.30;99.90
11908;DHT22;6014;47.690;9.130;2023-04-29T02:23:47;13.20;99.90
11908;DHT22;6014;47.690;9.130;2023-04-29T02:26:35;13.30;99.90
11908;DHT22;6014;47.690;9.130;2023-04-29T02:29:37;13.30;99.90
11908;DHT22;6014;47.690;9.130;2023-04-29T02:32:13;13.30;99.90
11908;DHT22;6014;47.690;9.130;2023-04-29T02:34:49;13.00;99.90
11908;DHT22;6014;47.690;9.130;2023-04-29T02:37:18;12.90;99.90
11908;DHT22;6014;47.690;9.130;2023-04-29T02:40:11;12.70;99.90
11908;DHT22;6014;47.690;9.130;2023-04-29T02:42:49;12.70;99.90
11908;DHT22;6014;47.690;9.130;2023-04-29T02:45:26;12.70;99.90
11908;DHT22;6014;47.690;9.130;2023-04-29T02:48:06;12.70;99.90
11908;DHT22;6014;47.690;9.130;2023-04-29T02:50:44;12.80;99.90
11908;DHT22;6014;47.690;9.130;2023-04-29T02:53:35;12.80;99.90
11908;DHT22;6014;47.690;9.130;2023-04-29T02:56:13;12.80;99.90
11908;DHT22;6014;47.690;9.130;2023-04-29T02:59:00;12.80;99.90
11908;DHT22;6014;47.690;9.130;2023-04-29T03:01:49;12.90;99.90
11908;DHT22;6014;47.690;9.130;2023-04-29T03:04:26;12.80;99.90
11908;DHT22;6014;47.690;9.130;2023-04-29T03:07:13;12.90;99.90
11908;DHT22;6014;47.690;9.130;2023-04-29T03:09:57;12.90;99.90
11908;DHT22;6014;47.690;9.130;2023-04-29T03:12:36;13.00;99.90
11908;DHT22;6014;47.690;9.130;2023-04-29T03:15:51;13.00;99.90
11908;DHT22;6014;47.690;9.130;2023-04-29T03:18:41;13.10;99.90
11908;DHT22;6014;47.690;9.130;2023-04-29T03:21:34;13.20;99.90
11908;DHT22;6014;47.690;9.130;2023-04-29T03:24:13;13.30;99.90
11908;DHT22;6014;47.690;9.130;2023-04-29T03:26:54;13.30;99.90
11908;DHT22;6014;47.690;9.130;2023-04-29T03:29:34;13.30;99.90
11908;DHT22;6014;47.690;9.130;2023-04-29T03:32:08;13.30;99.90
11908;DHT22;6014;47.690;9.130;2023-04-29T03:34:45;13.30;99.90
11908;DHT22;6014;47.690;9.130;2023-04-29T03:37:20;13.30;99.90
11908;DHT22;6014;47.690;9.130;2023-04-29T03:39:58;13.30;99.90
11908;DHT22;6014;47.690;9.130;2023-04-29T03:42:38;13.30;99.90
11908;DHT22;6014;47.690;9.130;2023-04-29T03:45:13;13.30;99.90
11908;DHT22;6014;47.690;9.130;2023-04-29T03:47:55;13.20;99.90
11908;DHT22;6014;47.690;9.130;2023-04-29T03:50:46;13.00;99.90
11908;DHT22;6014;47.690;9.130;2023-04-29T03:56:22;12.70;99.90
11908;DHT22;6014;47.690;9.130;2023-04-29T03:58:58;12.60;99.90
11908;DHT22;6014;47.690;9.130;2023-04-29T04:01:32;12.50;99.90
11908;DHT22;6014;47.690;9.130;2023-04-29T04:04:13;12.50;99.90
11908;DHT22;6014;47.690;9.130;2023-04-29T04:06:55;12.50;99.90
11908;DHT22;6014;47.690;9.130;2023-04-29T04:09:34;12.40;99.90
11908;DHT22;6014;47.690;9.130;2023-04-29T04:12:06;12.40;99.90
11908;DHT22;6014;47.690;9.130;2023-04-29T04:15:02;12.40;99.90
11908;DHT22;6014;47.690;9.130;2023-04-29T04:17:50;12.30;99.90
11908;DHT22;6014;47.690;9.130;2023-04-29T04:20:23;12.30;99.90
11908;DHT22;6014;47.690;9.130;2023-04-29T04:23:04;12.20;99.90
11908;DHT22;6014;47.690;9.130;2023-04-29T04:25:37;12.30;99.90
11908;DHT22;6014;47.690;9.130;2023-04-29T04:28:12;12.20;99.90
11908;DHT22;6014;47.690;9.130;2023-04-29T04:30:55;12.20;99.90
11908;DHT22;6014;47.690;9.130;2023-04-29T04:33:35;12.20;99.90
11908;DHT22;6014;47.690;9.130;2023-04-29T04:36:18;12.20;99.90
11908;DHT22;6014;47.690;9.130;2023-04-29T04:39:04;12.20;99.90
11908;DHT22;6014;47.690;9.130;2023-04-29T04:41:35;12.10;99.90
11908;DHT22;6014;47.690;9.130;2023-04-29T04:44:12;12.00;99.90
11908;DHT22;6014;47.690;9.130;2023-04-29T04:46:44;12.00;99.90
11908;DHT22;6014;47.690;9.130;2023-04-29T04:52:15;12.00;99.90
11908;DHT22;6014;47.690;9.130;2023-04-29T04:54:52;12.00;99.90
11908;DHT22;6014;47.690;9.130;2023-04-29T04:57:30;11.90;99.90
11908;DHT22;6014;47.690;9.130;2023-04-29T05:00:06;12.10;99.90
11908;DHT22;6014;47.690;9.130;2023-04-29T05:02:52;12.00;99.90
11908;DHT22;6014;47.690;9.130;2023-04-29T05:08:40;12.10;99.90
11908;DHT22;6014;47.690;9.130;2023-04-29T05:11:20;12.20;99.90
11908;DHT22;6014;47.690;9.130;2023-04-29T05:13:55;12.30;99.90
11908;DHT22;6014;47.690;9.130;2023-04-29T05:16:34;12.40;99.90
11908;DHT22;6014;47.690;9.130;2023-04-29T05:19:36;12.60;99.90
11908;DHT22;6014;47.690;9.130;2023-04-29T05:22:17;13.10;99.90
11908;DHT22;6014;47.690;9.130;2023-04-29T05:24:47;13.60;99.90
11908;DHT22;6014;47.690;9.130;2023-04-29T05:27:28;14.00;99.90
11908;DHT22;6014;47.690;9.130;2023-04-29T05:30:04;14.30;99.90
11908;DHT22;6014;47.690;9.130;2023-04-29T05:32:43;14.60;99.90
11908;DHT22;6014;47.690;9.130;2023-04-29T05:35:22;14.50;99.90
11908;DHT22;6014;47.690;9.130;2023-04-29T05:38:02;14.90;99.90
11908;DHT22;6014;47.690;9.130;2023-04-29T05:40:42;15.10;99.90
11908;DHT22;6014;47.690;9.130;2023-04-29T05:43:18;15.20;99.90
11908;DHT22;6014;47.690;9.130;2023-04-29T05:45:57;15.30;99.90
11908;DHT22;6014;47.690;9.130;2023-04-29T05:48:30;15.40;99.90
11908;DHT22;6014;47.690;9.130;2023-04-29T05:51:03;15.30;99.90
11908;DHT22;6014;47.690;9.130;2023-04-29T05:53:41;15.20;99.90
11908;DHT22;6014;47.690;9.130;2023-04-29T05:56:20;15.10;99.90
11908;DHT22;6014;47.690;9.130;2023-04-29T05:59:07;15.20;99.90
11908;DHT22;6014;47.690;9.130;2023-04-29T06:01:47;15.30;99.90
11908;DHT22;6014;47.690;9.130;2023-04-29T06:04:27;15.20;99.90
11908;DHT22;6014;47.690;9.130;2023-04-29T06:07:07;15.40;99.90
11908;DHT22;6014;47.690;9.130;2023-04-29T06:09:57;15.80;99.90
11908;DHT22;6014;47.690;9.130;2023-04-29T06:12:51;16.00;99.90
11908;DHT22;6014;47.690;9.130;2023-04-29T06:15:48;16.20;99.90
11908;DHT22;6014;47.690;9.130;2023-04-29T06:18:52;16.50;99.90
11908;DHT22;6014;47.690;9.130;2023-04-29T06:21:34;16.70;99.90
11908;DHT22;6014;47.690;9.130;2023-04-29T06:24:14;16.70;99.90
11908;DHT22;6014;47.690;9.130;2023-04-29T06:27:05;16.60;99.90
11908;DHT22;6014;47.690;9.130;2023-04-29T06:29:49;16.70;99.90
11908;DHT22;6014;47.690;9.130;2023-04-29T06:32:47;16.80;99.90
11908;DHT22;6014;47.690;9.130;2023-04-29T06:35:47;17.20;99.90
11908;DHT22;6014;47.690;9.130;2023-04-29T06:38:26;17.00;99.90
11908;DHT22;6014;47.690;9.130;2023-04-29T06:41:15;17.30;99.90
11908;DHT22;6014;47.690;9.130;2023-04-29T06:43:59;17.60;99.90
11908;DHT22;6014;47.690;9.130;2023-04-29T06:46:40;17.50;99.90
11908;DHT22;6014;47.690;9.130;2023-04-29T06:49:27;17.50;99.90
11908;DHT22;6014;47.690;9.130;2023-04-29T06:52:26;17.90;99.90
11908;DHT22;6014;47.690;9.130;2023-04-29T06:55:05;18.40;99.90
11908;DHT22;6014;47.690;9.130;2023-04-29T06:57:42;18.60;99.90
11908;DHT22;6014;47.690;9.130;2023-04-29T07:00:33;18.70;99.90
11908;DHT22;6014;47.690;9.130;2023-04-29T07:03:22;18.70;99.90
11908;DHT22;6014;47.690;9.130;2023-04-29T07:06:08;18.70;99.90
11908;DHT22;6014;47.690;9.130;2023-04-29T07:08:51;18.70;99.90
11908;DHT22;6014;47.690;9.130;2023-04-29T07:11:39;19.40;99.90
11908;DHT22;6014;47.690;9.130;2023-04-29T07:14:31;19.60;99.90
11908;DHT22;6014;47.690;9.130;2023-04-29T07:17:40;19.60;99.90
11908;DHT22;6014;47.690;9.130;2023-04-29T07:20:25;19.40;99.90
11908;DHT22;6014;47.690;9.130;2023-04-29T07:23:05;19.40;99.90
11908;DHT22;6014;47.690;9.130;2023-04-29T07:25:51;18.50;99.90
11908;DHT22;6014;47.690;9.130;2023-04-29T07:29:10;18.10;99.90
11908;DHT22;6014;47.690;9.130;2023-04-29T07:34:58;18.50;99.90
11908;DHT22;6014;47.690;9.130;2023-04-29T07:37:39;18.70;99.90
11908;DHT22;6014;47.690;9.130;2023-04-29T07:40:25;19.00;99.90
11908;DHT22;6014;47.690;9.130;2023-04-29T07:42:56;19.30;99.90
11908;DHT22;6014;47.690;9.130;2023-04-29T07:46:12;19.10;99.90
11908;DHT22;6014;47.690;9.130;2023-04-29T07:49:01;18.40;99.90
11908;DHT22;6014;47.690;9.130;2023-04-29T07:52:12;17.80;99.90
11908;DHT22;6014;47.690;9.130;2023-04-29T07:55:19;18.40;99.90
11908;DHT22;6014;47.690;9.130;2023-04-29T07:58:15;18.80;99.90
11908;DHT22;6014;47.690;9.130;2023-04-29T08:01:04;19.10;99.90
11908;DHT22;6014;47.690;9.130;2023-04-29T08:04:12;18.40;99.90
11908;DHT22;6014;47.690;9.130;2023-04-29T08:10:03;18.90;99.90
11908;DHT22;6014;47.690;9.130;2023-04-29T08:12:31;19.10;99.90
11908;DHT22;6014;47.690;9.130;2023-04-29T08:15:01;19.30;99.90
11908;DHT22;6014;47.690;9.130;2023-04-29T08:17:30;19.50;99.90
11908;DHT22;6014;47.690;9.130;2023-04-29T08:20:04;20.00;99.90
11908;DHT22;6014;47.690;9.130;2023-04-29T08:22:33;20.10;99.90
11908;DHT22;6014;47.690;9.130;2023-04-29T08:25:02;20.10;99.90
11908;DHT22;6014;47.690;9.130;2023-04-29T08:27:31;20.10;99.90
11908;DHT22;6014;47.690;9.130;2023-04-29T08:30:03;20.10;99.90
11908;DHT22;6014;47.690;9.130;2023-04-29T08:32:36;20.10;99.90
11908;DHT22;6014;47.690;9.130;2023-04-29T08:35:08;20.40;99.90
11908;DHT22;6014;47.690;9.130;2023-04-29T08:37:41;20.40;99.90
11908;DHT22;6014;47.690;9.130;2023-04-29T08:40:10;20.30;99.90
11908;DHT22;6014;47.690;9.130;2023-04-29T08:42:47;20.60;99.90
11908;DHT22;6014;47.690;9.130;2023-04-29T08:45:19;20.50;99.90
11908;DHT22;6014;47.690;9.130;2023-04-29T08:47:50;20.50;99.90
11908;DHT22;6014;47.690;9.130;2023-04-29T08:50:19;20.80;99.90
11908;DHT22;6014;47.690;9.130;2023-04-29T08:52:54;20.80;99.90
11908;DHT22;6014;47.690;9.130;2023-04-29T08:55:24;21.00;99.90
11908;DHT22;6014;47.690;9.130;2023-04-29T08:57:54;20.80;99.90
11908;DHT22;6014;47.690;9.130;2023-04-29T09:00:25;20.60;99.90
11908;DHT22;6014;47.690;9.130;2023-04-29T09:02:55;21.00;99.90
11908;DHT22;6014;47.690;9.130;2023-04-29T09:05:33;20.80;99.90
11908;DHT22;6014;47.690;9.130;2023-04-29T09:08:09;20.90;99.90
11908;DHT22;6014;47.690;9.130;2023-04-29T09:10:45;21.10;99.90
11908;DHT22;6014;47.690;9.130;2023-04-29T09:13:22;21.50;99.90
11908;DHT22;6014;47.690;9.130;2023-04-29T09:15:58;21.80;99.90
11908;DHT22;6014;47.690;9.130;2023-04-29T09:18:45;21.80;99.90
11908;DHT22;6014;47.690;9.130;2023-04-29T09:21:15;22.50;99.90
11908;DHT22;6014;47.690;9.130;2023-04-29T09:23:49;22.20;97.80
11908;DHT22;6014;47.690;9.130;2023-04-29T09:26:18;21.80;94.80
11908;DHT22;6014;47.690;9.130;2023-04-29T09:29:06;22.20;95.40
11908;DHT22;6014;47.690;9.130;2023-04-29T09:31:44;22.60;94.10
11908;DHT22;6014;47.690;9.130;2023-04-29T09:34:13;22.20;90.80
11908;DHT22;6014;47.690;9.130;2023-04-29T09:36:43;22.40;91.40
11908;DHT22;6014;47.690;9.130;2023-04-29T09:39:13;22.70;89.80
11908;DHT22;6014;47.690;9.130;2023-04-29T09:41:57;22.70;88.00
11908;DHT22;6014;47.690;9.130;2023-04-29T09:44:27;22.80;82.60
11908;DHT22;6014;47.690;9.130;2023-04-29T09:47:02;22.60;75.70
11908;DHT22;6014;47.690;9.130;2023-04-29T09:49:33;22.80;78.20
11908;DHT22;6014;47.690;9.130;2023-04-29T09:52:07;22.70;74.40
11908;DHT22;6014;47.690;9.130;2023-04-29T09:54:38;22.80;82.30
11908;DHT22;6014;47.690;9.130;2023-04-29T09:57:08;23.10;67.30
11908;DHT22;6014;47.690;9.130;2023-04-29T09:59:38;22.70;74.80
11908;DHT22;6014;47.690;9.130;2023-04-29T10:02:12;23.10;65.70
11908;DHT22;6014;47.690;9.130;2023-04-29T10:04:44;22.50;62.30
11908;DHT22;6014;47.690;9.130;2023-04-29T10:07:13;22.10;70.50
11908;DHT22;6014;47.690;9.130;2023-04-29T10:09:43;21.50;71.80
11908;DHT22;6014;47.690;9.130;2023-04-29T10:12:15;21.50;79.50
11908;DHT22;6014;47.690;9.130;2023-04-29T10:14:48;22.30;82.00
11908;DHT22;6014;47.690;9.130;2023-04-29T10:17:23;22.40;83.00
11908;DHT22;6014;47.690;9.130;2023-04-29T10:19:55;22.40;78.30
11908;DHT22;6014;47.690;9.130;2023-04-29T10:22:30;22.70;79.80
11908;DHT22;6014;47.690;9.130;2023-04-29T10:25:00;22.90;72.40
11908;DHT22;6014;47.690;9.130;2023-04-29T10:27:30;23.10;70.10
11908;DHT22;6014;47.690;9.130;2023-04-29T10:30:01;23.90;65.00
11908;DHT22;6014;47.690;9.130;2023-04-29T10:32:33;23.80;63.00
11908;DHT22;6014;47.690;9.130;2023-04-29T10:35:17;24.00;61.80
11908;DHT22;6014;47.690;9.130;2023-04-29T10:37:47;24.40;59.40
11908;DHT22;6014;47.690;9.130;2023-04-29T10:40:17;24.70;45.90
11908;DHT22;6014;47.690;9.130;2023-04-29T10:42:48;23.80;50.40
11908;DHT22;6014;47.690;9.130;2023-04-29T10:45:20;23.30;56.60
11908;DHT22;6014;47.690;9.130;2023-04-29T10:48:16;23.50;57.70
11908;DHT22;6014;47.690;9.130;2023-04-29T10:51:01;24.40;55.40
11908;DHT22;6014;47.690;9.130;2023-04-29T10:53:30;25.10;47.20
11908;DHT22;6014;47.690;9.130;2023-04-29T10:56:03;25.20;48.10
11908;DHT22;6014;47.690;9.130;2023-04-29T10:58:33;25.00;39.50
11908;DHT22;6014;47.690;9.130;2023-04-29T11:01:02;24.60;43.50
11908;DHT22;6014;47.690;9.130;2023-04-29T11:03:52;24.40;44.70
11908;DHT22;6014;47.690;9.130;2023-04-29T11:06:26;24.90;43.70
11908;DHT22;6014;47.690;9.130;2023-04-29T11:09:10;25.00;46.80
11908;DHT22;6014;47.690;9.130;2023-04-29T11:11:43;24.80;39.70
11908;DHT22;6014;47.690;9.130;2023-04-29T11:14:12;24.60;41.60
11908;DHT22;6014;47.690;9.130;2023-04-29T11:16:50;24.70;45.30
11908;DHT22;6014;47.690;9.130;2023-04-29T11:19:23;24.80;41.40
11908;DHT22;6014;47.690;9.130;2023-04-29T11:25:04;24.60;44.30
11908;DHT22;6014;47.690;9.130;2023-04-29T11:27:34;24.50;41.20
11908;DHT22;6014;47.690;9.130;2023-04-29T11:30:04;23.70;42.70
11908;DHT22;6014;47.690;9.130;2023-04-29T11:32:35;23.90;42.00
11908;DHT22;6014;47.690;9.130;2023-04-29T11:35:10;24.20;40.60
11908;DHT22;6014;47.690;9.130;2023-04-29T11:37:39;24.10;40.40
11908;DHT22;6014;47.690;9.130;2023-04-29T11:40:08;24.30;37.40
11908;DHT22;6014;47.690;9.130;2023-04-29T11:42:40;24.60;38.00
11908;DHT22;6014;47.690;9.130;2023-04-29T11:45:09;24.10;38.90
11908;DHT22;6014;47.690;9.130;2023-04-29T11:47:42;23.20;39.50
11908;DHT22;6014;47.690;9.130;2023-04-29T11:50:13;23.20;41.80
11908;DHT22;6014;47.690;9.130;2023-04-29T11:52:45;23.40;40.60
11908;DHT22;6014;47.690;9.130;2023-04-29T11:55:14;23.80;40.50
11908;DHT22;6014;47.690;9.130;2023-04-29T11:57:42;24.10;40.50
11908;DHT22;6014;47.690;9.130;2023-04-29T12:00:11;23.50;40.30
11908;DHT22;6014;47.690;9.130;2023-04-29T12:02:43;23.80;41.60
11908;DHT22;6014;47.690;9.130;2023-04-29T12:05:14;23.60;41.50
11908;DHT22;6014;47.690;9.130;2023-04-29T12:07:43;23.20;41.40
11908;DHT22;6014;47.690;9.130;2023-04-29T12:10:11;23.60;41.20
11908;DHT22;6014;47.690;9.130;2023-04-29T12:12:41;23.80;39.90
11908;DHT22;6014;47.690;9.130;2023-04-29T12:15:11;23.60;37.70
11908;DHT22;6014;47.690;9.130;2023-04-29T12:17:41;23.30;39.00
11908;DHT22;6014;47.690;9.130;2023-04-29T12:20:10;23.40;37.90
11908;DHT22;6014;47.690;9.130;2023-04-29T12:22:40;23.30;37.40
11908;DHT22;6014;47.690;9.130;2023-04-29T12:25:10;23.00;37.20
11908;DHT22;6014;47.690;9.130;2023-04-29T12:27:41;22.70;40.10
11908;DHT22;6014;47.690;9.130;2023-04-29T12:30:10;22.70;44.60
11908;DHT22;6014;47.690;9.130;2023-04-29T12:32:38;22.30;43.70
11908;DHT22;6014;47.690;9.130;2023-04-29T12:35:14;22.00;44.40
11908;DHT22;6014;47.690;9.130;2023-04-29T12:37:47;21.60;51.40
11908;DHT22;6014;47.690;9.130;2023-04-29T12:40:21;21.20;63.60
11908;DHT22;6014;47.690;9.130;2023-04-29T12:42:52;20.50;75.00
11908;DHT22;6014;47.690;9.130;2023-04-29T12:45:31;20.00;95.30
11908;DHT22;6014;47.690;9.130;2023-04-29T12:48:01;19.50;96.60
11908;DHT22;6014;47.690;9.130;2023-04-29T12:50:40;19.00;97.50
11908;DHT22;6014;47.690;9.130;2023-04-29T12:53:10;19.00;99.90
11908;DHT22;6014;47.690;9.130;2023-04-29T12:55:41;18.70;99.90
11908;DHT22;6014;47.690;9.130;2023-04-29T12:58:09;18.30;99.90
11908;DHT22;6014;47.690;9.130;2023-04-29T13:00:38;18.10;99.90
11908;DHT22;6014;47.690;9.130;2023-04-29T13:03:06;17.70;99.90
11908;DHT22;6014;47.690;9.130;2023-04-29T13:05:35;17.30;99.90
11908;DHT22;6014;47.690;9.130;2023-04-29T13:08:06;16.90;99.90
11908;DHT22;6014;47.690;9.130;2023-04-29T13:10:36;16.80;99.90
11908;DHT22;6014;47.690;9.130;2023-04-29T13:13:05;16.70;99.90
11908;DHT22;6014;47.690;9.130;2023-04-29T13:15:35;16.70;99.90
11908;DHT22;6014;47.690;9.130;2023-04-29T13:18:05;16.70;99.90
11908;DHT22;6014;47.690;9.130;2023-04-29T13:20:33;16.80;99.90
11908;DHT22;6014;47.690;9.130;2023-04-29T13:23:13;16.90;99.90
11908;DHT22;6014;47.690;9.130;2023-04-29T13:25:43;16.90;99.90
11908;DHT22;6014;47.690;9.130;2023-04-29T13:28:11;16.80;99.90
11908;DHT22;6014;47.690;9.130;2023-04-29T13:30:40;16.80;99.90
11908;DHT22;6014;47.690;9.130;2023-04-29T13:33:08;16.80;99.90
11908;DHT22;6014;47.690;9.130;2023-04-29T13:35:39;16.80;99.90
11908;DHT22;6014;47.690;9.130;2023-04-29T13:38:10;16.60;99.90
11908;DHT22;6014;47.690;9.130;2023-04-29T13:40:42;16.40;99.90
11908;DHT22;6014;47.690;9.130;2023-04-29T13:43:17;16.30;99.90
11908;DHT22;6014;47.690;9.130;2023-04-29T13:46:01;16.20;99.90
11908;DHT22;6014;47.690;9.130;2023-04-29T13:48:29;16.20;99.90
11908;DHT22;6014;47.690;9.130;2023-04-29T13:51:17;16.20;99.90
11908;DHT22;6014;47.690;9.130;2023-04-29T13:54:06;16.30;99.90
11908;DHT22;6014;47.690;9.130;2023-04-29T13:56:38;16.50;99.90
11908;DHT22;6014;47.690;9.130;2023-04-29T13:59:33;16.60;99.90
11908;DHT22;6014;47.690;9.130;2023-04-29T14:02:12;16.70;99.90
11908;DHT22;6014;47.690;9.130;2023-04-29T14:04:51;16.70;99.90
11908;DHT22;6014;47.690;9.130;2023-04-29T14:07:20;16.80;99.90
11908;DHT22;6014;47.690;9.130;2023-04-29T14:09:51;16.90;99.90
11908;DHT22;6014;47.690;9.130;2023-04-29T14:12:22;17.00;99.90
11908;DHT22;6014;47.690;9.130;2023-04-29T14:14:52;17.00;99.90
11908;DHT22;6014;47.690;9.130;2023-04-29T14:17:26;17.00;99.90
11908;DHT22;6014;47.690;9.130;2023-04-29T14:19:54;17.10;99.90
11908;DHT22;6014;47.690;9.130;2023-04-29T14:22:23;17.20;99.90
11908;DHT22;6014;47.690;9.130;2023-04-29T14:24:53;17.20;99.90
11908;DHT22;6014;47.690;9.130;2023-04-29T14:27:23;17.20;99.90
11908;DHT22;6014;47.690;9.130;2023-04-29T14:29:53;17.20;99.90
11908;DHT22;6014;47.690;9.130;2023-04-29T14:32:25;17.20;99.90
11908;DHT22;6014;47.690;9.130;2023-04-29T14:34:56;17.30;99.90
11908;DHT22;6014;47.690;9.130;2023-04-29T14:37:25;17.20;99.90
11908;DHT22;6014;47.690;9.130;2023-04-29T14:39:59;17.20;99.90
11908;DHT22;6014;47.690;9.130;2023-04-29T14:42:31;17.10;99.90
11908;DHT22;6014;47.690;9.130;2023-04-29T14:45:00;17.40;99.90
11908;DHT22;6014;47.690;9.130;2023-04-29T14:47:28;17.70;99.90
11908;DHT22;6014;47.690;9.130;2023-04-29T14:49:56;18.10;99.90
11908;DHT22;6014;47.690;9.130;2023-04-29T14:52:27;19.00;99.90
11908;DHT22;6014;47.690;9.130;2023-04-29T14:54:59;19.80;99.90
11908;DHT22;6014;47.690;9.130;2023-04-29T14:57:27;21.20;98.10
11908;DHT22;6014;47.690;9.130;2023-04-29T14:59:57;21.60;85.40
11908;DHT22;6014;47.690;9.130;2023-04-29T15:02:25;21.40;76.10
11908;DHT22;6014;47.690;9.130;2023-04-29T15:04:59;21.10;85.30
11908;DHT22;6014;47.690;9.130;2023-04-29T15:07:29;20.40;91.40
11908;DHT22;6014;47.690;9.130;2023-04-29T15:09:59;19.90;96.10
11908;DHT22;6014;47.690;9.130;2023-04-29T15:12:34;19.60;97.60
11908;DHT22;6014;47.690;9.130;2023-04-29T15:15:10;19.50;99.90
11908;DHT22;6014;47.690;9.130;2023-04-29T15:17:41;19.40;99.90
11908;DHT22;6014;47.690;9.130;2023-04-29T15:20:18;19.20;99.90
11908;DHT22;6014;47.690;9.130;2023-04-29T15:22:51;19.00;99.90
11908;DHT22;6014;47.690;9.130;2023-04-29T15:25:24;18.70;99.90
11908;DHT22;6014;47.690;9.130;2023-04-29T15:28:08;18.60;99.90
11908;DHT22;6014;47.690;9.130;2023-04-29T15:30:37;18.70;99.90
11908;DHT22;6014;47.690;9.130;2023-04-29T15:33:06;18.90;99.30
11908;DHT22;6014;47.690;9.130;2023-04-29T15:35:34;19.00;85.70
11908;DHT22;6014;47.690;9.130;2023-04-29T15:38:03;19.20;90.30
11908;DHT22;6014;47.690;9.130;2023-04-29T15:40:31;19.50;76.60
11908;DHT22;6014;47.690;9.130;2023-04-29T15:42:59;19.90;74.50
11908;DHT22;6014;47.690;9.130;2023-04-29T15:45:27;20.50;71.50
11908;DHT22;6014;47.690;9.130;2023-04-29T15:47:56;20.90;83.70
11908;DHT22;6014;47.690;9.130;2023-04-29T15:50:25;20.30;82.00
11908;DHT22;6014;47.690;9.130;2023-04-29T15:52:54;20.00;84.70
11908;DHT22;6014;47.690;9.130;2023-04-29T15:55:24;20.30;85.00
11908;DHT22;6014;47.690;9.130;2023-04-29T15:57:52;20.10;90.20
11908;DHT22;6014;47.690;9.130;2023-04-29T16:00:20;19.90;91.20
11908;DHT22;6014;47.690;9.130;2023-04-29T16:02:48;19.80;95.70
11908;DHT22;6014;47.690;9.130;2023-04-29T16:05:17;19.90;95.00
11908;DHT22;6014;47.690;9.130;2023-04-29T16:07:46;20.10;97.80
11908;DHT22;6014;47.690;9.130;2023-04-29T16:10:14;20.50;90.80
11908;DHT22;6014;47.690;9.130;2023-04-29T16:12:41;20.50;88.10
11908;DHT22;6014;47.690;9.130;2023-04-29T16:15:10;20.20;83.70
11908;DHT22;6014;47.690;9.130;2023-04-29T16:17:38;20.50;90.40
11908;DHT22;6014;47.690;9.130;2023-04-29T16:20:07;20.80;92.30
11908;DHT22;6014;47.690;9.130;2023-04-29T16:22:37;20.90;92.20
11908;DHT22;6014;47.690;9.130;2023-04-29T16:25:05;21.20;81.40
11908;DHT22;6014;47.690;9.130;2023-04-29T16:27:34;20.60;74.70
11908;DHT22;6014;47.690;9.130;2023-04-29T16:30:02;20.50;78.50
11908;DHT22;6014;47.690;9.130;2023-04-29T16:32:30;20.30;79.10
11908;DHT22;6014;47.690;9.130;2023-04-29T16:35:00;20.10;81.00
11908;DHT22;6014;47.690;9.130;2023-04-29T16:37:28;20.10;87.40
11908;DHT22;6014;47.690;9.130;2023-04-29T16:39:57;20.00;85.90
11908;DHT22;6014;47.690;9.130;2023-04-29T16:42:26;20.00;90.20
11908;DHT22;6014;47.690;9.130;2023-04-29T16:44:54;19.70;92.10
11908;DHT22;6014;47.690;9.130;2023-04-29T16:47:22;19.70;93.90
11908;DHT22;6014;47.690;9.130;2023-04-29T16:49:50;19.70;93.10
11908;DHT22;6014;47.690;9.130;2023-04-29T16:52:19;19.80;93.40
11908;DHT22;6014;47.690;9.130;2023-04-29T16:54:47;19.80;92.90
11908;DHT22;6014;47.690;9.130;2023-04-29T16:57:23;19.60;90.10
11908;DHT22;6014;47.690;9.130;2023-04-29T16:59:52;19.70;91.30
11908;DHT22;6014;47.690;9.130;2023-04-29T17:02:21;19.60;90.90
11908;DHT22;6014;47.690;9.130;2023-04-29T17:04:50;19.40;88.70
11908;DHT22;6014;47.690;9.130;2023-04-29T17:07:18;19.30;85.70
11908;DHT22;6014;47.690;9.130;2023-04-29T17:09:47;19.20;83.40